Time;durP1;ratioP1;P1;durP2;ratioP2;P2;SDS_P1;SDS_P2;PMS_P1;PMS_P2;Temp;Humidity;BMP_temperature;BMP_pressure;BME280_temperature;BME280_humidity;BME280_pressure;Samples;Min_cycle;Max_cycle;Signal;HPM_P1;HPM_P2
2023/05/01 00:00:59;;;;;;;;;;;;;;;10.73;71.41;101714.53;5045793;28;1269;-74
2023/05/01 00:03:24;;;;;;;;;;;;;;;10.71;71.53;101713.78;5046685;28;1149;-76
2023/05/01 00:05:50;;;;;;;;;;;;;;;10.70;71.11;101711.31;5034686;28;1216;-76
2023/05/01 00:08:15;;;;;;;;;;;;;;;10.67;71.41;101698.53;5037099;28;1959;-74
2023/05/01 00:10:40;;;;;;;;;;;;;;;10.68;70.89;101700.22;5040045;28;1306;-73
2023/05/01 00:13:05;;;;;;;;;;;;;;;10.67;71.88;101704.56;5044446;28;1592;-73
2023/05/01 00:15:31;;;;;;;;;;;;;;;10.64;71.44;101690.03;5037070;28;1135;-74
2023/05/01 00:17:57;;;;;;;;;;;;;;;10.63;71.40;101685.78;5014749;28;1085248;-74
2023/05/01 00:20:28;;;;;;;;;;;;;;;10.62;71.53;101686.72;5046379;28;1189;-74
2023/05/01 00:22:53;;;;;;;;;;;;;;;10.61;71.19;101690.25;5047203;28;1271;-76
2023/05/01 00:25:19;;;;;;;;;;;;;;;10.62;71.72;101684.13;5037415;28;1208;-74
2023/05/01 00:27:44;;;;;;;;;;;;;;;10.58;71.82;101672.28;5038551;28;1975;-75
2023/05/01 00:30:10;;;;;;;;;;;;;;;10.56;71.63;101671.56;5045133;28;1216;-75
2023/05/01 00:32:35;;;;;;;;;;;;;;;10.56;71.73;101668.16;5046109;28;1193;-75
2023/05/01 00:35:00;;;;;;;;;;;;;;;10.55;71.95;101674.25;5042396;28;1236;-74
2023/05/01 00:37:25;;;;;;;;;;;;;;;10.54;71.22;101663.06;5043064;28;1596;-73
2023/05/01 00:39:51;;;;;;;;;;;;;;;10.52;71.27;101662.34;5039296;28;1307;-74
2023/05/01 00:42:16;;;;;;;;;;;;;;;10.48;71.23;101653.09;5040146;28;1127;-75
2023/05/01 00:44:41;;;;;;;;;;;;;;;10.46;71.86;101660.16;5038269;28;1146;-74
2023/05/01 00:47:06;;;;;;;;;;;;;;;10.45;71.92;101655.91;5041256;28;1902;-77
2023/05/01 00:49:32;;;;;;;;;;;;;;;10.43;71.91;101655.16;5033119;28;891;-73
2023/05/01 00:51:57;;;;;;;;;;;;;;;10.39;72.13;101658.09;5044059;28;1028;-75
2023/05/01 00:54:24;;;;;;;;;;;;;;;10.34;72.13;101645.44;5042098;28;1191;-74
2023/05/01 00:56:49;;;;;;;;;;;;;;;10.32;72.37;101639.50;5044954;28;1135;-75
2023/05/01 00:59:15;;;;;;;;;;;;;;;10.31;72.27;101645.63;5038262;28;1128;-73
2023/05/01 01:01:40;;;;;;;;;;;;;;;10.29;72.56;101632.78;5044302;28;1146;-73
2023/05/01 01:04:06;;;;;;;;;;;;;;;10.27;73.05;101639.00;5035475;28;875;-74
2023/05/01 01:06:46;;;;;;;;;;;;;;;10.22;73.16;101631.50;5058643;28;1913;-75
2023/05/01 01:09:36;;;;;;;;;;;;;;;10.22;72.70;101628.09;5038970;28;1256;-74
2023/05/01 01:12:04;;;;;;;;;;;;;;;10.20;73.24;101622.16;5030436;28;1492;-74
2023/05/01 01:14:38;;;;;;;;;;;;;;;10.19;72.88;101615.31;5041699;28;1869;-74
2023/05/01 01:17:09;;;;;;;;;;;;;;;10.18;73.19;101613.66;5030984;28;1348;-76
2023/05/01 01:19:43;;;;;;;;;;;;;;;10.17;73.11;101612.00;5043382;28;1454;-76
2023/05/01 01:22:11;;;;;;;;;;;;;;;10.15;73.35;101614.72;5036737;28;1552;-74
2023/05/01 01:24:36;;;;;;;;;;;;;;;10.17;73.12;101617.19;5040501;28;966;-76
2023/05/01 01:27:10;;;;;;;;;;;;;;;10.14;73.54;101610.44;5043502;28;1906;-75
2023/05/01 01:29:48;;;;;;;;;;;;;;;10.14;74.47;101607.84;5044928;28;1281;-74
2023/05/01 01:32:32;;;;;;;;;;;;;;;10.10;73.75;101596.88;5037200;28;1506;-74
2023/05/01 01:35:02;;;;;;;;;;;;;;;10.07;74.04;101597.06;5037949;28;1232;-75
2023/05/01 01:37:36;;;;;;;;;;;;;;;10.08;73.70;101600.47;5045856;28;1255;-77
2023/05/01 01:40:04;;;;;;;;;;;;;;;10.05;73.55;101588.56;5036799;28;1199;-74
2023/05/01 01:42:33;;;;;;;;;;;;;;;10.07;73.80;101591.88;5041117;28;1216;-74
2023/05/01 01:45:01;;;;;;;;;;;;;;;10.07;74.24;101597.06;5045210;28;1227;-75
2023/05/01 01:47:30;;;;;;;;;;;;;;;10.08;73.62;101593.53;5043682;28;1894;-74
2023/05/01 01:49:57;;;;;;;;;;;;;;;10.06;73.85;101587.63;5040981;28;1380;-75
2023/05/01 01:52:23;;;;;;;;;;;;;;;10.06;74.34;101579.03;5041687;28;1259;-75
2023/05/01 01:54:53;;;;;;;;;;;;;;;10.06;73.75;101577.25;5041164;28;1303;-76
2023/05/01 01:57:20;;;;;;;;;;;;;;;10.05;74.08;101580.78;5040316;28;1928;-73
2023/05/01 01:59:46;;;;;;;;;;;;;;;10.03;73.78;101564.50;5040873;28;1549;-74
2023/05/01 02:02:12;;;;;;;;;;;;;;;10.06;74.17;101559.13;5037025;28;1332;-77
2023/05/01 02:04:39;;;;;;;;;;;;;;;10.06;73.60;101566.91;5033630;28;1071;-74
2023/05/01 02:07:05;;;;;;;;;;;;;;;10.06;73.88;101559.13;5036300;28;1897;-77
2023/05/01 02:09:31;;;;;;;;;;;;;;;10.06;74.38;101559.13;5038983;28;1157;-74
2023/05/01 02:11:58;;;;;;;;;;;;;;;10.06;73.90;101558.28;5044818;28;1062;-76
2023/05/01 02:14:25;;;;;;;;;;;;;;;10.04;73.84;101555.81;5040442;28;1222;-73
2023/05/01 02:16:51;;;;;;;;;;;;;;;10.03;73.69;101546.34;5043282;28;1109;-73
2023/05/01 02:19:16;;;;;;;;;;;;;;;10.01;74.07;101550.81;5040172;28;1242;-73
2023/05/01 02:21:43;;;;;;;;;;;;;;;10.00;74.02;101538.81;5039690;28;1166;-75
2023/05/01 02:24:09;;;;;;;;;;;;;;;10.01;73.87;101545.63;5044699;28;1182;-76
2023/05/01 02:26:40;;;;;;;;;;;;;;;9.99;73.75;101542.31;5037751;28;1973;-75
2023/05/01 02:29:06;;;;;;;;;;;;;;;9.98;74.15;101545.03;5041266;28;1307;-74
2023/05/01 02:31:31;;;;;;;;;;;;;;;9.95;74.48;101540.88;5056982;28;1452;-74
2023/05/01 02:33:56;;;;;;;;;;;;;;;9.93;73.83;101537.56;5045831;28;1289;-75
2023/05/01 02:36:21;;;;;;;;;;;;;;;9.92;74.36;101530.72;5038449;28;1236;-74
2023/05/01 02:38:49;;;;;;;;;;;;;;;9.94;74.50;101534.03;5059825;28;1290;-76
2023/05/01 02:41:15;;;;;;;;;;;;;;;9.93;73.91;101529.78;5044071;28;1456;-74
2023/05/01 02:43:41;;;;;;;;;;;;;;;9.94;73.93;101523.66;5041156;28;1400;-73
2023/05/01 02:46:09;;;;;;;;;;;;;;;9.90;74.46;101522.22;5049914;28;1182;-74
2023/05/01 02:48:36;;;;;;;;;;;;;;;9.89;73.88;101520.56;5048154;28;1965;-74
2023/05/01 02:51:02;;;;;;;;;;;;;;;9.86;74.36;101515.56;5037917;28;1346;-74
2023/05/01 02:53:28;;;;;;;;;;;;;;;9.87;74.43;101514.66;5045052;28;1209;-73
2023/05/01 02:55:53;;;;;;;;;;;;;;;9.86;74.34;101515.56;5035541;28;1197;-74
2023/05/01 02:58:19;;;;;;;;;;;;;;;9.88;74.35;101508.53;5045534;28;1269;-74
2023/05/01 03:00:44;;;;;;;;;;;;;;;9.89;74.77;101501.59;5048068;28;1600;-75
2023/05/01 03:03:10;;;;;;;;;;;;;;;9.86;74.45;101500.03;5035889;28;1368;-73
2023/05/01 03:05:37;;;;;;;;;;;;;;;9.85;74.70;101495.78;5038281;28;1108;-74
2023/05/01 03:08:03;;;;;;;;;;;;;;;9.84;74.62;101487.19;5042533;28;1949;-75
2023/05/01 03:10:28;;;;;;;;;;;;;;;9.83;74.55;101495.88;5039314;28;1692;-73
2023/05/01 03:12:53;;;;;;;;;;;;;;;9.80;74.43;101490.91;5046949;28;1752;-74
2023/05/01 03:15:18;;;;;;;;;;;;;;;9.80;74.33;101485.72;5045114;28;1187;-73
2023/05/01 03:17:43;;;;;;;;;;;;;;;9.82;74.28;101488.22;5042659;28;1220;-74
2023/05/01 03:20:09;;;;;;;;;;;;;;;9.82;74.46;101488.22;5039275;28;1262;-73
2023/05/01 03:22:34;;;;;;;;;;;;;;;9.81;74.11;101486.56;5037479;28;1159;-74
2023/05/01 03:25:00;;;;;;;;;;;;;;;9.80;74.08;101479.72;5036400;28;1681;-73
2023/05/01 03:27:25;;;;;;;;;;;;;;;9.80;74.17;101479.72;5040774;28;1898;-74
2023/05/01 03:29:51;;;;;;;;;;;;;;;9.81;74.57;101476.22;5035569;28;1410;-74
2023/05/01 03:32:16;;;;;;;;;;;;;;;9.80;74.86;101469.34;5042724;28;1641;-77
2023/05/01 03:34:42;;;;;;;;;;;;;;;9.79;74.20;101467.69;5042200;28;1176;-74
2023/05/01 03:37:07;;;;;;;;;;;;;;;9.81;74.28;101465.84;5038141;28;1275;-73
2023/05/01 03:39:32;;;;;;;;;;;;;;;9.78;74.65;101471.22;5047939;28;1156;-74
2023/05/01 03:41:58;;;;;;;;;;;;;;;9.78;74.84;101471.22;5045075;28;1159;-73
2023/05/01 03:44:23;;;;;;;;;;;;;;;9.78;74.51;101468.63;5044754;28;1188;-77
2023/05/01 03:46:48;;;;;;;;;;;;;;;9.77;74.21;101469.56;5040480;28;1957;-76
2023/05/01 03:49:13;;;;;;;;;;;;;;;9.77;74.86;101464.38;5047987;28;1557;-74
2023/05/01 03:51:39;;;;;;;;;;;;;;;9.75;74.68;101455.91;5046581;28;1261;-75
2023/05/01 03:54:04;;;;;;;;;;;;;;;9.74;74.97;101464.59;5043948;28;1227;-74
2023/05/01 03:56:34;;;;;;;;;;;;;;;9.73;74.59;101460.34;5041974;28;1193;-77
2023/05/01 03:58:59;;;;;;;;;;;;;;;9.70;74.85;101456.22;5040913;28;1365;-76
2023/05/01 04:01:25;;;;;;;;;;;;;;;9.69;75.22;101454.56;5045562;28;1314;-74
2023/05/01 04:03:50;;;;;;;;;;;;;;;9.70;74.77;101463.16;5041707;28;1097;-73
2023/05/01 04:06:16;;;;;;;;;;;;;;;9.70;75.24;101455.38;5045007;28;1204;-75
2023/05/01 04:08:42;;;;;;;;;;;;;;;9.69;75.09;101451.13;5043620;28;1902;-73
2023/05/01 04:11:07;;;;;;;;;;;;;;;9.66;75.22;101449.56;5046558;28;1361;-74
2023/05/01 04:13:32;;;;;;;;;;;;;;;9.63;75.06;101451.53;5038586;28;1141;-74
2023/05/01 04:15:58;;;;;;;;;;;;;;;9.60;75.11;101451.75;5041376;28;1195;-75
2023/05/01 04:18:24;;;;;;;;;;;;;;;9.58;74.63;101449.28;5037655;28;1322;-74
2023/05/01 04:20:50;;;;;;;;;;;;;;;9.56;75.03;101446.75;5034480;28;1884;-73
2023/05/01 04:23:15;;;;;;;;;;;;;;;9.57;75.24;101440.66;5045668;28;909;-73
2023/05/01 04:25:40;;;;;;;;;;;;;;;9.58;75.06;101444.94;5043093;28;2050;-73
2023/05/01 04:28:05;;;;;;;;;;;;;;;9.54;75.39;101443.47;5045982;28;1898;-73
2023/05/01 04:30:30;;;;;;;;;;;;;;;9.53;75.13;101441.81;5042367;28;1205;-74
2023/05/01 04:32:57;;;;;;;;;;;;;;;9.54;75.54;101433.09;5046350;28;1335;-73
2023/05/01 04:35:22;;;;;;;;;;;;;;;9.52;75.45;101434.97;5039682;28;1441;-73
2023/05/01 04:37:47;;;;;;;;;;;;;;;9.51;75.07;101430.72;5043927;28;1402;-73
2023/05/01 04:40:13;;;;;;;;;;;;;;;9.52;74.79;101434.97;5045358;28;1226;-73
2023/05/01 04:42:38;;;;;;;;;;;;;;;9.52;75.29;101434.97;5046558;28;1275;-74
2023/05/01 04:45:03;;;;;;;;;;;;;;;9.53;75.06;101436.63;5041330;28;1165;-74
2023/05/01 04:47:29;;;;;;;;;;;;;;;9.55;75.35;101439.09;5043929;28;1898;-73
2023/05/01 04:49:54;;;;;;;;;;;;;;;9.50;75.33;101439.41;5036109;28;1247;-74
2023/05/01 04:52:19;;;;;;;;;;;;;;;9.45;75.45;101449.25;5046422;28;1302;-74
2023/05/01 04:54:45;;;;;;;;;;;;;;;9.45;75.57;101433.72;5042568;28;1238;-74
2023/05/01 04:57:10;;;;;;;;;;;;;;;9.48;75.86;101443.06;5034136;28;1284;-74
2023/05/01 04:59:35;;;;;;;;;;;;;;;9.46;75.50;101430.22;5038641;28;1394;-74
2023/05/01 05:02:00;;;;;;;;;;;;;;;9.44;75.17;101437.25;5042482;28;1360;-74
2023/05/01 05:04:25;;;;;;;;;;;;;;;9.45;75.41;101438.88;5046203;28;1290;-74
2023/05/01 05:06:51;;;;;;;;;;;;;;;9.45;75.35;101444.06;5039562;28;1914;-74
2023/05/01 05:09:16;;;;;;;;;;;;;;;9.46;75.36;101440.56;5036646;28;1180;-76
2023/05/01 05:11:41;;;;;;;;;;;;;;;9.46;75.74;101435.41;5037103;28;1345;-74
2023/05/01 05:14:07;;;;;;;;;;;;;;;9.47;75.79;101442.22;5045467;28;1350;-73
2023/05/01 05:16:33;;;;;;;;;;;;;;;9.49;75.24;101439.53;5046235;28;1268;-75
2023/05/01 05:18:58;;;;;;;;;;;;;;;9.47;75.61;101439.63;5043172;28;1406;-74
2023/05/01 05:21:23;;;;;;;;;;;;;;;9.47;75.31;101442.22;5039645;28;1196;-74
2023/05/01 05:23:49;;;;;;;;;;;;;;;9.46;75.54;101444.91;5043167;28;1312;-76
2023/05/01 05:26:14;;;;;;;;;;;;;;;9.46;75.47;101456.09;5045732;28;958;-75
2023/05/01 05:28:40;;;;;;;;;;;;;;;9.48;75.48;101449.06;5036098;28;1909;-75
2023/05/01 05:31:05;;;;;;;;;;;;;;;9.51;75.67;101442.81;5057995;28;1210;-73
2023/05/01 05:33:30;;;;;;;;;;;;;;;9.50;75.81;101444.59;5045863;28;1275;-74
2023/05/01 05:35:56;;;;;;;;;;;;;;;9.51;75.59;101438.47;5039117;28;1225;-77
2023/05/01 05:38:22;;;;;;;;;;;;;;;9.53;75.59;101441.81;5035907;28;1426;-75
2023/05/01 05:40:47;;;;;;;;;;;;;;;9.56;76.02;101441.59;5029079;28;1330;-75
2023/05/01 05:43:12;;;;;;;;;;;;;;;9.57;75.15;101438.06;5040840;28;1192;-75
2023/05/01 05:45:37;;;;;;;;;;;;;;;9.58;75.38;101444.94;5039046;28;1216;-74
2023/05/01 05:48:03;;;;;;;;;;;;;;;9.58;75.59;101439.75;5045110;28;1959;-74
2023/05/01 05:50:28;;;;;;;;;;;;;;;9.57;75.77;101437.22;5043216;28;1272;-76
2023/05/01 05:52:54;;;;;;;;;;;;;;;9.56;75.50;101439.00;5040239;28;1200;-74
2023/05/01 05:55:19;;;;;;;;;;;;;;;9.57;75.84;101432.06;5039610;28;1300;-75
2023/05/01 05:57:44;;;;;;;;;;;;;;;9.60;75.94;101431.03;5044336;28;1255;-77
2023/05/01 06:00:10;;;;;;;;;;;;;;;9.61;75.86;101427.50;5042856;28;1227;-75
2023/05/01 06:02:35;;;;;;;;;;;;;;;9.64;75.68;101419.53;5043649;28;1277;-75
2023/05/01 06:05:01;;;;;;;;;;;;;;;9.63;75.87;101417.88;5042765;28;1275;-77
2023/05/01 06:07:27;;;;;;;;;;;;;;;9.65;76.06;101423.78;5046098;28;1897;-75
2023/05/01 06:09:52;;;;;;;;;;;;;;;9.67;75.65;101416.72;5039353;28;1501;-74
2023/05/01 06:12:18;;;;;;;;;;;;;;;9.67;75.98;101414.13;5043792;28;1070;-75
2023/05/01 06:14:43;;;;;;;;;;;;;;;9.75;76.15;101430.81;5041883;28;1560;-75
2023/05/01 06:17:08;;;;;;;;;;;;;;;9.80;76.03;101430.50;5043572;28;1299;-74
2023/05/01 06:19:34;;;;;;;;;;;;;;;9.82;75.53;101423.47;5043603;28;1220;-75
2023/05/01 06:22:00;;;;;;;;;;;;;;;9.84;76.26;101426.75;5043261;28;1564;-75
2023/05/01 06:24:26;;;;;;;;;;;;;;;9.88;76.26;101425.63;5044814;28;1325;-74
2023/05/01 06:26:51;;;;;;;;;;;;;;;9.93;75.83;101428.72;5044010;28;1894;-74
2023/05/01 06:29:16;;;;;;;;;;;;;;;9.97;76.63;101424.97;5040121;28;1386;-74
2023/05/01 06:31:42;;;;;;;;;;;;;;;10.01;76.28;101426.41;5041250;28;1204;-75
2023/05/01 06:34:07;;;;;;;;;;;;;;;10.05;76.41;101427.06;5038721;28;1470;-75
2023/05/01 06:36:32;;;;;;;;;;;;;;;10.08;75.68;101422.47;5045275;28;2058;-75
2023/05/01 06:38:57;;;;;;;;;;;;;;;10.09;75.41;101424.16;5042235;28;1462;-74
2023/05/01 06:41:24;;;;;;;;;;;;;;;10.13;76.21;101421.31;5040301;28;1415;-76
2023/05/01 06:43:49;;;;;;;;;;;;;;;10.14;75.90;101422.97;5038396;28;1473;-74
2023/05/01 06:46:15;;;;;;;;;;;;;;;10.17;76.16;101425.38;5034345;28;1266;-76
2023/05/01 06:48:40;;;;;;;;;;;;;;;10.21;76.07;101416.44;5044441;28;1942;-74
2023/05/01 06:51:05;;;;;;;;;;;;;;;10.23;75.99;101414.56;5041082;28;1267;-75
2023/05/01 06:53:31;;;;;;;;;;;;;;;10.27;76.17;101413.44;5044907;28;1027;-77
2023/05/01 06:55:56;;;;;;;;;;;;;;;10.30;76.24;101421.00;5055197;28;1222;-75
2023/05/01 06:58:21;;;;;;;;;;;;;;;10.31;76.50;101418.28;5043078;28;1580;-75
2023/05/01 07:00:46;;;;;;;;;;;;;;;10.35;76.29;101416.31;5042179;28;1307;-74
2023/05/01 07:03:12;;;;;;;;;;;;;;;10.40;75.94;101419.41;5042808;28;1371;-74
2023/05/01 07:05:39;;;;;;;;;;;;;;;10.42;75.78;101420.13;5037249;28;1185;-75
2023/05/01 07:08:04;;;;;;;;;;;;;;;10.41;76.14;101418.47;5041220;28;1894;-77
2023/05/01 07:10:30;;;;;;;;;;;;;;;10.44;75.97;101423.44;5045227;28;1212;-74
2023/05/01 07:12:55;;;;;;;;;;;;;;;10.47;75.55;101418.03;5041721;28;1442;-75
2023/05/01 07:15:21;;;;;;;;;;;;;;;10.50;75.84;101417.81;5043813;28;1541;-75
2023/05/01 07:17:46;;;;;;;;;;;;;;;10.55;75.93;101420.91;5046823;28;1494;-76
2023/05/01 07:20:11;;;;;;;;;;;;;;;10.55;76.21;101415.72;5039810;28;1280;-76
2023/05/01 07:22:36;;;;;;;;;;;;;;;10.61;76.53;101419.66;5046938;28;1561;-74
2023/05/01 07:25:02;;;;;;;;;;;;;;;10.69;76.33;101416.47;5046801;28;1306;-74
2023/05/01 07:27:27;;;;;;;;;;;;;;;10.76;76.74;101409.91;5047616;28;1953;-75
2023/05/01 07:29:54;;;;;;;;;;;;;;;10.84;75.97;101415.38;5042325;28;1247;-75
2023/05/01 07:32:19;;;;;;;;;;;;;;;10.92;76.52;101412.22;5037387;28;1265;-76
2023/05/01 07:34:44;;;;;;;;;;;;;;;10.95;75.94;101407.59;5042852;28;1247;-76
2023/05/01 07:37:10;;;;;;;;;;;;;;;11.05;75.47;101412.94;5047442;28;1156;-74
2023/05/01 07:39:35;;;;;;;;;;;;;;;11.08;75.58;101413.56;5053284;28;1207;-79
2023/05/01 07:42:00;;;;;;;;;;;;;;;11.13;75.56;101411.47;5057087;28;1273;-75
2023/05/01 07:44:25;;;;;;;;;;;;;;;11.15;75.69;101413.94;5044376;28;1113;-76
2023/05/01 07:46:51;;;;;;;;;;;;;;;11.23;75.56;101410.75;5046913;28;1951;-75
2023/05/01 07:49:16;;;;;;;;;;;;;;;11.26;76.17;101406.16;5046131;28;1009;-76
2023/05/01 07:51:41;;;;;;;;;;;;;;;11.34;76.57;101402.97;5044999;28;1371;-75
2023/05/01 07:54:07;;;;;;;;;;;;;;;11.45;75.25;101405.59;5048045;28;1272;-73
2023/05/01 07:56:32;;;;;;;;;;;;;;;11.52;75.72;101409.38;5038536;28;1327;-77
2023/05/01 07:58:58;;;;;;;;;;;;;;;11.58;75.62;101406.31;5035904;28;1245;-78
2023/05/01 08:01:23;;;;;;;;;;;;;;;11.67;75.22;101416.00;5043575;28;1208;-77
2023/05/01 08:03:48;;;;;;;;;;;;;;;11.74;74.67;101407.72;5043376;28;1343;-76
2023/05/01 08:06:13;;;;;;;;;;;;;;;11.84;75.68;101408.72;5046209;28;1543;-76
2023/05/01 08:08:39;;;;;;;;;;;;;;;11.95;75.72;101403.50;5047739;28;1980;-76
2023/05/01 08:11:04;;;;;;;;;;;;;;;12.07;74.84;101406.91;5034061;28;1064;-76
2023/05/01 08:13:30;;;;;;;;;;;;;;;12.15;74.54;101405.34;5032591;28;1381;-75
2023/05/01 08:15:59;;;;;;;;;;;;;;;12.21;74.06;101407.50;5046540;28;1001;-76
2023/05/01 08:18:24;;;;;;;;;;;;;;;12.33;74.70;101402.25;5046566;28;1310;-75
2023/05/01 08:20:49;;;;;;;;;;;;;;;12.44;74.19;101403.06;5042226;28;1021;-77
2023/05/01 08:23:15;;;;;;;;;;;;;;;12.57;74.27;101402.91;5040136;28;879;-76
2023/05/01 08:25:41;;;;;;;;;;;;;;;12.68;74.07;101397.66;5039777;28;1179;-75
2023/05/01 08:28:06;;;;;;;;;;;;;;;12.77;74.00;101396.88;5037618;28;1898;-75
2023/05/01 08:30:31;;;;;;;;;;;;;;;12.86;73.39;101400.53;5060726;28;1278;-77
2023/05/01 08:32:56;;;;;;;;;;;;;;;12.92;73.38;101394.81;5047894;28;1083;-75
2023/05/01 08:35:22;;;;;;;;;;;;;;;13.05;73.43;101402.44;5045525;28;1240;-76
2023/05/01 08:37:47;;;;;;;;;;;;;;;13.16;73.33;101407.56;5046027;28;1407;-75
2023/05/01 08:40:13;;;;;;;;;;;;;;;13.25;72.43;101406.84;5037522;28;1224;-76
2023/05/01 08:42:39;;;;;;;;;;;;;;;13.34;72.11;101402.63;5046873;28;1486;-77
2023/05/01 08:45:06;;;;;;;;;;;;;;;13.42;72.17;101407.19;5044070;28;1246;-77
2023/05/01 08:47:35;;;;;;;;;;;;;;;13.53;72.37;101405.34;5034683;28;1894;-76
2023/05/01 08:50:02;;;;;;;;;;;;;;;13.67;71.83;101406.78;5044513;28;1302;-75
2023/05/01 08:52:27;;;;;;;;;;;;;;;13.77;71.36;101407.66;5041272;28;1552;-75
2023/05/01 08:54:55;;;;;;;;;;;;;;;13.88;68.50;101408.50;5040454;28;1534;-77
2023/05/01 08:57:21;;;;;;;;;;;;;;;13.94;67.58;101405.38;5042821;28;1558;-78
2023/05/01 08:59:46;;;;;;;;;;;;;;;14.01;70.03;101404.69;5039768;28;1214;-76
2023/05/01 09:02:13;;;;;;;;;;;;;;;14.09;68.95;101407.47;5057316;28;1334;-76
2023/05/01 09:04:39;;;;;;;;;;;;;;;14.13;66.06;101397.59;5043907;28;1182;-77
2023/05/01 09:07:05;;;;;;;;;;;;;;;14.19;66.24;101396.22;5058937;28;1945;-76
2023/05/01 09:09:31;;;;;;;;;;;;;;;14.28;67.36;101401.47;5044361;28;1308;-76
2023/05/01 09:12:03;;;;;;;;;;;;;;;14.33;66.07;101394.03;5042522;28;1284;-76
2023/05/01 09:14:30;;;;;;;;;;;;;;;14.40;65.78;101393.53;5045481;28;1330;-77
2023/05/01 09:16:55;;;;;;;;;;;;;;;14.53;67.20;101397.53;5060967;28;1212;-78
2023/05/01 09:19:21;;;;;;;;;;;;;;;14.61;65.71;101396.84;5035761;28;1355;-75
2023/05/01 09:21:46;;;;;;;;;;;;;;;14.69;65.24;101394.38;5037421;28;1070;-77
2023/05/01 09:24:11;;;;;;;;;;;;;;;14.79;65.50;101402.19;5043152;28;1176;-78
2023/05/01 09:26:40;;;;;;;;;;;;;;;14.91;66.48;101402.88;5050711;28;1637;-77
2023/05/01 09:29:05;;;;;;;;;;;;;;;15.04;65.02;101399.03;5038029;28;1910;-76
2023/05/01 09:31:33;;;;;;;;;;;;;;;15.20;65.59;101398.44;5042903;28;1383;-76
2023/05/01 09:33:59;;;;;;;;;;;;;;;15.35;64.73;101406.66;5042801;28;1361;-77
2023/05/01 09:36:26;;;;;;;;;;;;;;;15.41;65.22;101406.91;5042521;28;1306;-77
2023/05/01 09:38:52;;;;;;;;;;;;;;;15.47;64.39;101402.06;5036928;28;1213;-76
2023/05/01 09:41:19;;;;;;;;;;;;;;;15.48;64.27;101398.47;5030770;28;1377;-78
2023/05/01 09:43:48;;;;;;;;;;;;;;;15.50;63.48;101399.19;5037489;28;1235;-78
2023/05/01 09:46:14;;;;;;;;;;;;;;;15.54;64.53;101395.28;5038152;28;1270;-78
2023/05/01 09:48:39;;;;;;;;;;;;;;;15.63;64.16;101395.28;5034958;28;1968;-77
2023/05/01 09:51:22;;;;;;;;;;;;;;;15.72;63.83;101393.63;5041763;28;1561;-79
2023/05/01 09:53:48;;;;;;;;;;;;;;;15.86;63.63;101397.53;5054366;28;1274;-78
2023/05/01 09:56:13;;;;;;;;;;;;;;;15.84;62.62;101391.63;5033156;28;1184;-76
2023/05/01 09:58:39;;;;;;;;;;;;;;;15.89;60.90;101398.06;5035516;28;1509;-77
2023/05/01 10:01:04;;;;;;;;;;;;;;;15.87;60.71;101402.63;5040282;28;1244;-78
2023/05/01 10:03:30;;;;;;;;;;;;;;;15.86;61.61;101400.97;5044184;28;1272;-77
2023/05/01 10:05:59;;;;;;;;;;;;;;;15.89;62.79;101399.88;5034235;28;1253;-80
2023/05/01 10:08:25;;;;;;;;;;;;;;;16.07;61.61;101405.16;5032687;28;1905;-79
2023/05/01 10:11:06;;;;;;;;;;;;;;;16.02;61.08;101404.75;5040442;28;1092;-77
2023/05/01 10:13:31;;;;;;;;;;;;;;;16.06;60.16;101411.34;5032978;28;1263;-77
2023/05/01 10:15:57;;;;;;;;;;;;;;;16.04;56.00;101408.84;5033854;28;1116;-76
2023/05/01 10:18:22;;;;;;;;;;;;;;;16.06;58.73;101409.56;5037169;28;1303;-78
2023/05/01 10:20:48;;;;;;;;;;;;;;;16.09;59.80;101411.88;5031770;28;1034;-78
2023/05/01 10:23:13;;;;;;;;;;;;;;;16.15;59.66;101403.41;5040437;28;1013;-77
2023/05/01 10:25:40;;;;;;;;;;;;;;;16.18;59.92;101405.75;5045682;28;1079;-77
2023/05/01 10:28:07;;;;;;;;;;;;;;;16.20;59.47;101403.00;5043154;28;1890;-78
2023/05/01 10:30:34;;;;;;;;;;;;;;;16.25;60.40;101416.47;5041626;28;1259;-77
2023/05/01 10:32:59;;;;;;;;;;;;;;;16.34;60.45;101415.56;5041831;28;1175;-77
2023/05/01 10:35:27;;;;;;;;;;;;;;;16.41;59.27;101406.16;5045464;28;1196;-77
2023/05/01 10:37:55;;;;;;;;;;;;;;;16.50;59.29;101403.59;5035040;28;1190;-76
2023/05/01 10:40:39;;;;;;;;;;;;;;;16.55;57.66;101417.06;5042433;28;1309;-76
2023/05/01 10:43:15;;;;;;;;;;;;;;;16.51;55.23;101413.09;5043595;28;1247;-77
2023/05/01 10:45:41;;;;;;;;;;;;;;;16.45;57.33;101402.25;5054063;28;1537;-76
2023/05/01 10:48:07;;;;;;;;;;;;;;;16.50;59.13;101408.84;5041848;28;1946;-77
2023/05/01 10:50:33;;;;;;;;;;;;;;;16.56;59.50;101408.25;5045517;28;1438;-77
2023/05/01 10:53:10;;;;;;;;;;;;;;;16.63;60.97;101411.91;5049434;28;1090;-78
2023/05/01 10:55:36;;;;;;;;;;;;;;;16.66;59.40;101419.47;5042652;28;1081;-80
2023/05/01 10:58:02;;;;;;;;;;;;;;;16.64;59.66;101417.00;5048026;28;1341;-78
2023/05/01 11:00:27;;;;;;;;;;;;;;;16.72;59.57;101413.66;5059123;28;1242;-77
2023/05/01 11:03:28;;;;;;;;;;;;;;;16.74;59.96;101411.69;5044039;28;1288;-77
2023/05/01 11:05:59;;;;;;;;;;;;;;;16.74;60.33;101414.31;5038963;28;1266;-77
2023/05/01 11:08:29;;;;;;;;;;;;;;;16.80;59.70;101405.03;5047312;28;1953;-79
2023/05/01 11:10:54;;;;;;;;;;;;;;;16.99;60.06;101403.06;5046591;28;1702;-78
2023/05/01 11:13:39;;;;;;;;;;;;;;;17.02;58.36;101411.59;5060747;28;1183;-79
2023/05/01 11:16:23;;;;;;;;;;;;;;;17.05;56.91;101406.06;5042428;28;1307;-76
2023/05/01 11:18:48;;;;;;;;;;;;;;;17.13;55.79;101413.97;5042390;28;1450;-76
2023/05/01 11:21:14;;;;;;;;;;;;;;;17.12;54.97;101409.72;5039226;28;1189;-77
2023/05/01 11:23:45;;;;;;;;;;;;;;;17.04;55.41;101409.66;5036822;28;1049;-78
2023/05/01 11:26:11;;;;;;;;;;;;;;;17.04;55.02;101412.28;5038579;28;1529;-77
2023/05/01 11:28:37;;;;;;;;;;;;;;;17.03;56.39;101406.19;5047823;28;1963;-77
2023/05/01 11:31:02;;;;;;;;;;;;;;;17.11;57.79;101408.06;5035366;28;1353;-77
2023/05/01 11:33:27;;;;;;;;;;;;;;;17.20;56.42;101425.47;5044981;28;1206;-79
2023/05/01 11:35:57;;;;;;;;;;;;;;;17.15;54.64;101409.41;5039697;28;1419;-80
2023/05/01 11:38:22;;;;;;;;;;;;;;;17.16;55.99;101411.88;5046191;28;1084;-77
2023/05/01 11:40:52;;;;;;;;;;;;;;;17.24;55.50;101418.97;5037479;28;1172;-76
2023/05/01 11:43:18;;;;;;;;;;;;;;;17.26;55.63;101417.00;5047238;28;1155;-76
2023/05/01 11:45:43;;;;;;;;;;;;;;;17.18;54.82;101419.56;5047164;28;1498;-76
2023/05/01 11:48:17;;;;;;;;;;;;;;;17.21;54.96;101419.28;5033123;28;1906;-76
2023/05/01 11:50:43;;;;;;;;;;;;;;;17.06;55.46;101426.03;5058155;28;1235;-79
2023/05/01 11:53:14;;;;;;;;;;;;;;;17.04;54.52;101428.84;5046903;28;1335;-78
2023/05/01 11:55:39;;;;;;;;;;;;;;;17.06;56.07;101436.53;5047067;28;1236;-77
2023/05/01 11:58:05;;;;;;;;;;;;;;;17.08;55.87;101431.94;5041560;28;1295;-78
2023/05/01 12:00:32;;;;;;;;;;;;;;;17.01;56.14;101428.28;5041781;28;1220;-78
2023/05/01 12:03:05;;;;;;;;;;;;;;;16.97;53.90;101427.78;5040821;28;1404;-78
2023/05/01 12:05:30;;;;;;;;;;;;;;;16.96;54.67;101424.31;5042659;28;1297;-78
2023/05/01 12:08:11;;;;;;;;;;;;;;;17.05;52.80;101424.41;5047546;28;1894;-78
2023/05/01 12:10:37;;;;;;;;;;;;;;;17.13;54.10;101419.22;5042872;28;916;-78
2023/05/01 12:13:03;;;;;;;;;;;;;;;17.16;54.01;101426.78;5041009;28;1092;-79
2023/05/01 12:15:29;;;;;;;;;;;;;;;17.26;53.09;101432.72;5037947;28;1008;-77
2023/05/01 12:17:55;;;;;;;;;;;;;;;17.29;52.32;101426.38;5046890;28;1244;-78
2023/05/01 12:20:40;;;;;;;;;;;;;;;17.24;50.80;101426.81;5045926;28;980;-78
2023/05/01 12:23:05;;;;;;;;;;;;;;;17.21;50.79;101429.78;5040958;28;1151;-79
2023/05/01 12:25:32;;;;;;;;;;;;;;;17.06;51.16;101426.03;5037279;28;1035;-78
2023/05/01 12:27:58;;;;;;;;;;;;;;;17.11;52.24;101423.78;5032906;28;1910;-80
2023/05/01 12:30:25;;;;;;;;;;;;;;;17.13;51.92;101429.69;5038291;28;1283;-79
2023/05/01 12:32:51;;;;;;;;;;;;;;;17.23;51.70;101433.03;5044089;28;1485;-79
2023/05/01 12:35:16;;;;;;;;;;;;;;;17.22;51.57;101428.78;5037771;28;1268;-79
2023/05/01 12:37:42;;;;;;;;;;;;;;;17.17;52.04;101428.41;5044152;28;1317;-78
2023/05/01 12:40:12;;;;;;;;;;;;;;;17.21;52.50;101422.72;5046052;28;1553;-78
2023/05/01 12:42:37;;;;;;;;;;;;;;;17.31;51.99;101435.72;5062555;28;1230;-78
2023/05/01 12:45:02;;;;;;;;;;;;;;;17.42;52.31;101435.44;5038183;28;1289;-77
2023/05/01 12:47:34;;;;;;;;;;;;;;;17.59;52.46;101428.50;5043503;28;1942;-78